Time;durP1;ratioP1;P1;durP2;ratioP2;P2;SDS_P1;SDS_P2;PMS_P1;PMS_P2;Temp;Humidity;BMP_temperature;BMP_pressure;BME280_temperature;BME280_humidity;BME280_pressure;Samples;Min_cycle;Max_cycle;Signal;HPM_P1;HPM_P2
2022/08/23 04:31:40;;;;;;;;;0.50;0.50;;;;;-147.14;100.00;58812.66;5447416;22;9778;-69
2022/08/23 04:34:06;;;;;;;;;0.00;0.00;;;;;-147.14;100.00;58812.66;5055978;28;8827;-68
2022/08/23 04:36:36;;;;;;;;;0.00;0.00;;;;;-147.14;100.00;58812.66;5056619;28;8783;-70
2022/08/23 04:39:01;;;;;;;;;0.00;0.00;;;;;-147.14;100.00;58812.66;5041864;28;8898;-69
2022/08/23 04:44:13;;;;;;;;;0.00;0.00;;;;;-147.14;100.00;58812.66;5042960;28;8807;-69
2022/08/23 04:46:39;;;;;;;;;1.00;0.75;;;;;-147.14;100.00;58812.66;5058640;28;8800;-69
2022/08/23 04:49:05;;;;;;;;;0.00;0.00;;;;;-147.14;100.00;58812.66;5056033;28;8803;-69
2022/08/23 04:51:30;;;;;;;;;0.00;0.00;;;;;-147.14;100.00;58812.66;5055616;28;32721;-69
2022/08/23 04:53:55;;;;;;;;;0.00;0.00;;;;;-147.14;100.00;58812.66;5055422;28;8909;-69
2022/08/23 04:56:22;;;;;;;;;0.33;0.33;;;;;-147.14;100.00;58812.66;5057778;28;21042;-69
2022/08/23 04:58:47;;;;;;;;;0.25;0.25;;;;;-147.14;100.00;58812.66;5057481;28;8858;-69
2022/08/23 05:01:14;;;;;;;;;1.00;1.00;;;;;-147.14;100.00;58812.66;5064423;28;13331;-69
2022/08/23 05:03:40;;;;;;;;;0.00;0.00;;;;;-147.14;100.00;58812.66;5054225;28;8803;-69
2022/08/23 05:06:06;;;;;;;;;0.00;0.00;;;;;-147.14;100.00;58812.66;5037889;28;11674;-69
2022/08/23 05:08:32;;;;;;;;;0.00;0.00;;;;;-147.14;100.00;58812.66;5061105;28;9590;-69
2022/08/23 05:11:05;;;;;;;;;0.25;0.25;;;;;-147.14;100.00;58812.66;5055917;28;8826;-69
2022/08/23 05:13:31;;;;;;;;;0.00;0.00;;;;;-147.14;100.00;58812.66;5054886;28;8908;-69
2022/08/23 05:15:56;;;;;;;;;1.00;1.00;;;;;-147.14;100.00;58812.66;5058668;28;8792;-69
2022/08/23 05:18:23;;;;;;;;;1.67;0.00;;;;;-147.14;100.00;58812.66;5061593;28;29506;-69
2022/08/23 05:20:48;;;;;;;;;0.00;0.00;;;;;-147.14;100.00;58812.66;5061434;28;8914;-70
2022/08/23 05:23:14;;;;;;;;;1.00;1.00;;;;;-147.14;100.00;58812.66;5060418;28;8791;-69
2022/08/23 05:25:48;;;;;;;;;0.00;0.00;;;;;-147.14;100.00;58812.66;5063466;28;8808;-69
2022/08/23 05:28:24;;;;;;;;;0.00;0.00;;;;;-147.14;100.00;58812.66;5043323;28;8823;-69
2022/08/23 05:31:02;;;;;;;;;0.00;0.00;;;;;-147.14;100.00;58812.66;5065261;28;8813;-70
2022/08/23 05:33:29;;;;;;;;;2.00;0.00;;;;;-147.14;100.00;58812.66;5061923;28;8823;-70
2022/08/23 05:35:54;;;;;;;;;0.25;0.25;;;;;-147.14;100.00;58812.66;5059101;28;8756;-70
2022/08/23 05:38:21;;;;;;;;;0.00;0.00;;;;;-147.14;100.00;58812.66;5054205;28;26150;-69
2022/08/23 05:40:54;;;;;;;;;0.50;0.50;;;;;-147.14;100.00;58812.66;5054824;28;8817;-70
2022/08/23 05:43:20;;;;;;;;;0.75;0.75;;;;;-147.14;100.00;58812.66;5052989;28;8803;-69
2022/08/23 05:45:46;;;;;;;;;0.00;0.00;;;;;-147.14;100.00;58812.66;5054298;28;8858;-70
2022/08/23 05:48:14;;;;;;;;;1.00;1.00;;;;;-147.14;100.00;58812.66;5054812;28;8878;-70
2022/08/23 05:50:39;;;;;;;;;0.75;0.00;;;;;-147.14;100.00;58812.66;5054754;28;11468;-70
2022/08/23 05:53:05;;;;;;;;;0.00;0.00;;;;;-147.14;100.00;58812.66;5054704;28;8932;-71
2022/08/23 05:55:30;;;;;;;;;0.00;0.00;;;;;-147.14;100.00;58812.66;5054140;28;8885;-69
2022/08/23 05:57:56;;;;;;;;;0.25;0.25;;;;;-147.14;100.00;58812.66;5054363;28;8896;-70
2022/08/23 06:00:21;;;;;;;;;1.00;1.00;;;;;-147.14;100.00;58812.66;5054884;28;32785;-69
2022/08/23 06:02:48;;;;;;;;;1.50;1.00;;;;;-147.14;100.00;58812.66;5053878;28;8815;-70
2022/08/23 06:05:14;;;;;;;;;1.00;1.00;;;;;-147.14;100.00;58812.66;5054889;28;8799;-70
2022/08/23 06:07:40;;;;;;;;;1.00;1.00;;;;;-147.14;100.00;58812.66;5053880;28;8771;-70
2022/08/23 06:10:07;;;;;;;;;1.50;1.00;;;;;-147.14;100.00;58812.66;5054618;28;8784;-70
2022/08/23 06:12:33;;;;;;;;;0.25;0.25;;;;;-147.14;100.00;58812.66;5052333;28;8782;-71
2022/08/23 06:14:58;;;;;;;;;1.00;1.00;;;;;-147.14;100.00;58812.66;5054650;28;8764;-69
2022/08/23 06:17:24;;;;;;;;;1.00;0.33;;;;;-147.14;100.00;58812.66;5053577;28;31879;-70
2022/08/23 06:19:49;;;;;;;;;1.00;1.00;;;;;-147.14;100.00;58812.66;5053446;28;29620;-69
2022/08/23 06:22:14;;;;;;;;;1.00;1.00;;;;;-147.14;100.00;58812.66;5054454;28;8830;-69
2022/08/23 06:24:40;;;;;;;;;1.00;1.00;;;;;-147.14;100.00;58812.66;5051342;28;26286;-69
2022/08/23 06:27:06;;;;;;;;;1.00;1.00;;;;;-147.14;100.00;58812.66;5052244;28;36799;-69
2022/08/23 06:29:32;;;;;;;;;0.75;0.75;;;;;-147.14;100.00;58812.66;5053948;28;8828;-69
2022/08/23 06:31:57;;;;;;;;;0.33;0.33;;;;;-147.14;100.00;58812.66;5053663;28;20773;-69
2022/08/23 06:34:24;;;;;;;;;1.67;1.00;;;;;-147.14;100.00;58812.66;5049448;28;8950;-68
2022/08/23 06:36:53;;;;;;;;;1.50;1.50;;;;;-147.14;100.00;58812.66;5048614;28;8799;-69
2022/08/23 06:39:20;;;;;;;;;1.00;1.00;;;;;-147.14;100.00;58812.66;5052301;28;8795;-68
2022/08/23 06:41:49;;;;;;;;;1.75;1.75;;;;;-147.14;100.00;58812.66;5051438;28;8819;-68
2022/08/23 06:44:16;;;;;;;;;2.00;2.00;;;;;-147.14;100.00;58812.66;5054355;28;8791;-69
2022/08/23 06:46:41;;;;;;;;;2.00;1.00;;;;;-147.14;100.00;58812.66;5053824;28;8961;-68
2022/08/23 06:49:07;;;;;;;;;1.00;1.00;;;;;-147.14;100.00;58812.66;5051477;28;8945;-69
2022/08/23 06:51:35;;;;;;;;;3.00;1.75;;;;;-147.14;100.00;58812.66;5053381;28;8897;-68
2022/08/23 06:54:03;;;;;;;;;1.00;1.00;;;;;-147.14;100.00;58812.66;5050767;28;8823;-68
2022/08/23 06:56:29;;;;;;;;;1.00;1.00;;;;;-147.14;100.00;58812.66;5050175;28;8768;-68
2022/08/23 06:58:54;;;;;;;;;0.50;0.25;;;;;-147.14;100.00;58812.66;5053764;28;9594;-68
2022/08/23 07:01:40;;;;;;;;;1.00;1.00;;;;;-147.14;100.00;58812.66;5053357;28;8830;-68
2022/08/23 07:04:07;;;;;;;;;0.80;0.80;;;;;-147.14;100.00;58812.66;5051397;28;8772;-68
2022/08/23 07:06:33;;;;;;;;;0.00;0.00;;;;;-147.14;100.00;58812.66;5053055;28;8827;-68
2022/08/23 07:08:58;;;;;;;;;0.00;0.00;;;;;-147.14;100.00;58812.66;5053483;28;8823;-68
2022/08/23 07:11:24;;;;;;;;;0.50;0.50;;;;;-147.14;100.00;58812.66;5036473;28;8980;-68
2022/08/23 07:13:51;;;;;;;;;1.00;1.00;;;;;-147.14;100.00;58812.66;5053068;28;8819;-68
2022/08/23 07:16:17;;;;;;;;;0.20;0.20;;;;;-147.14;100.00;58812.66;5053781;28;8830;-68
2022/08/23 07:18:44;;;;;;;;;0.60;0.60;;;;;-147.14;100.00;58812.66;5053390;28;8853;-68
2022/08/23 07:21:11;;;;;;;;;1.00;1.00;;;;;-147.14;100.00;58812.66;5052927;28;8834;-68
2022/08/23 07:23:37;;;;;;;;;0.40;0.40;;;;;-147.14;100.00;58812.66;5053256;28;8803;-65
2022/08/23 07:26:06;;;;;;;;;0.00;0.00;;;;;-147.14;100.00;58812.66;5056856;28;8901;-66
2022/08/23 07:28:32;;;;;;;;;0.40;0.40;;;;;-147.14;100.00;58812.66;5054863;28;8764;-65
2022/08/23 07:31:09;;;;;;;;;0.00;0.00;;;;;-147.14;100.00;58812.66;5055187;28;16909;-65
2022/08/23 07:33:36;;;;;;;;;0.80;0.80;;;;;-147.14;100.00;58812.66;5048672;28;8922;-66
2022/08/23 07:36:01;;;;;;;;;0.20;0.20;;;;;-147.14;100.00;58812.66;5056901;28;8803;-65
2022/08/23 07:38:27;;;;;;;;;0.25;0.25;;;;;-147.14;100.00;58812.66;5056249;28;8824;-65
2022/08/23 07:40:52;;;;;;;;;0.00;0.00;;;;;-147.14;100.00;58812.66;5046916;28;8847;-65
2022/08/23 07:43:17;;;;;;;;;0.00;0.00;;;;;-147.14;100.00;58812.66;5070628;28;31632;-65
2022/08/23 07:45:43;;;;;;;;;0.75;0.75;;;;;-147.14;100.00;58812.66;5064668;28;33693;-65
2022/08/23 07:48:08;;;;;;;;;1.00;0.00;;;;;-147.14;100.00;58812.66;5062377;28;8817;-65
2022/08/23 07:50:34;;;;;;;;;0.00;0.00;;;;;-147.14;100.00;58812.66;5056117;28;19604;-65
2022/08/23 07:53:01;;;;;;;;;0.25;0.00;;;;;-147.14;100.00;58812.66;5057275;28;21195;-64
2022/08/23 07:55:27;;;;;;;;;0.00;0.00;;;;;-147.14;100.00;58812.66;5059357;28;8783;-65
2022/08/23 07:57:52;;;;;;;;;0.00;0.00;;;;;-147.14;100.00;58812.66;5059978;28;8838;-64
2022/08/23 08:00:18;;;;;;;;;0.00;0.00;;;;;-147.14;100.00;58812.66;5059010;28;33693;-65
2022/08/23 08:02:43;;;;;;;;;0.00;0.00;;;;;-147.14;100.00;58812.66;5039621;28;8799;-65
2022/08/23 08:05:08;;;;;;;;;0.50;0.00;;;;;-147.14;100.00;58812.66;5057472;28;31727;-65
2022/08/23 08:07:34;;;;;;;;;0.00;0.00;;;;;-147.14;100.00;58812.66;5038155;28;28458;-65
2022/08/23 08:09:59;;;;;;;;;0.00;0.00;;;;;-147.14;100.00;58812.66;5056708;28;9538;-65
2022/08/23 08:12:27;;;;;;;;;0.00;0.00;;;;;-147.14;100.00;58812.66;5056494;28;8984;-65
2022/08/23 08:14:53;;;;;;;;;0.80;0.80;;;;;-147.14;100.00;58812.66;5052338;28;8799;-64
2022/08/23 08:17:19;;;;;;;;;0.80;0.80;;;;;-147.14;100.00;58812.66;5059334;28;8924;-65
2022/08/23 08:19:45;;;;;;;;;0.00;0.00;;;;;-147.14;100.00;58812.66;5055433;28;30268;-65
2022/08/23 08:22:11;;;;;;;;;0.00;0.00;;;;;-147.14;100.00;58812.66;5056227;28;8902;-64
2022/08/23 08:24:37;;;;;;;;;0.00;0.00;;;;;-147.14;100.00;58812.66;5055613;28;8799;-65
2022/08/23 08:27:02;;;;;;;;;1.75;0.75;;;;;-147.14;100.00;58812.66;5058924;28;13326;-66
2022/08/23 08:29:27;;;;;;;;;0.00;0.00;;;;;-147.14;100.00;58812.66;5057570;28;8811;-65
2022/08/23 08:31:53;;;;;;;;;1.75;1.75;;;;;-147.14;100.00;58812.66;5058652;28;9685;-65
2022/08/23 08:34:18;;;;;;;;;2.00;0.00;;;;;-147.14;100.00;58812.66;5055924;28;29113;-64
2022/08/23 08:36:49;;;;;;;;;0.25;0.25;;;;;-147.14;100.00;58812.66;5056265;28;16040;-65
2022/08/23 08:39:17;;;;;;;;;0.00;0.00;;;;;-147.14;100.00;58812.66;5055454;28;8799;-64
2022/08/23 08:41:47;;;;;;;;;0.60;0.60;;;;;-147.14;100.00;58812.66;5058612;28;8766;-64
2022/08/23 08:44:34;;;;;;;;;1.00;0.00;;;;;-147.14;100.00;58812.66;5038870;28;8833;-65
2022/08/23 08:47:03;;;;;;;;;0.80;0.80;;;;;-147.14;100.00;58812.66;5056136;28;8780;-66
2022/08/23 08:49:39;;;;;;;;;1.40;1.40;;;;;-147.14;100.00;58812.66;5039017;28;8900;-64
2022/08/23 08:52:14;;;;;;;;;0.00;0.00;;;;;-147.14;100.00;58812.66;5037355;28;9668;-64
2022/08/23 08:54:40;;;;;;;;;0.80;0.80;;;;;-147.14;100.00;58812.66;5037076;28;8836;-65
2022/08/23 08:57:06;;;;;;;;;1.40;0.00;;;;;-147.14;100.00;58812.66;5037977;28;8772;-65
2022/08/23 08:59:45;;;;;;;;;0.00;0.00;;;;;-147.14;100.00;58812.66;5060418;28;8797;-65
2022/08/23 09:02:17;;;;;;;;;0.00;0.00;;;;;-147.14;100.00;58812.66;5052535;28;8771;-65
2022/08/23 09:04:42;;;;;;;;;0.00;0.00;;;;;-147.14;100.00;58812.66;5036918;28;8744;-66
2022/08/23 09:07:17;;;;;;;;;1.75;0.75;;;;;-147.14;100.00;58812.66;5037981;28;8862;-65
2022/08/23 09:10:03;;;;;;;;;0.60;0.60;;;;;-147.14;100.00;58812.66;5056981;28;8807;-65
2022/08/23 09:13:06;;;;;;;;;0.20;0.20;;;;;-147.14;100.00;58812.66;5039527;28;8815;-65
2022/08/23 09:15:36;;;;;;;;;0.40;0.40;;;;;-147.14;100.00;58812.66;5037100;28;8795;-65
2022/08/23 09:18:09;;;;;;;;;0.00;0.00;;;;;-147.14;100.00;58812.66;5055335;28;8762;-65
2022/08/23 09:20:34;;;;;;;;;0.20;0.20;;;;;-147.14;100.00;58812.66;5057234;28;8791;-65
2022/08/23 09:23:25;;;;;;;;;0.75;0.50;;;;;-147.14;100.00;58812.66;5057111;28;8836;-65
2022/08/23 09:25:56;;;;;;;;;0.60;0.60;;;;;-147.14;100.00;58812.66;5059171;28;8752;-65
2022/08/23 09:28:21;;;;;;;;;0.40;0.40;;;;;-147.14;100.00;58812.66;5055445;28;8903;-64
2022/08/23 09:30:53;;;;;;;;;1.00;1.00;;;;;-147.14;100.00;58812.66;5058474;28;9286;-65
2022/08/23 09:33:24;;;;;;;;;0.20;0.20;;;;;-147.14;100.00;58812.66;5057185;28;8866;-65
2022/08/23 09:36:14;;;;;;;;;2.00;2.00;;;;;-147.14;100.00;58812.66;5052194;28;8753;-65
2022/08/23 09:38:50;;;;;;;;;1.00;1.00;;;;;-147.14;100.00;58812.66;5033709;28;8764;-65
2022/08/23 09:41:19;;;;;;;;;1.20;1.20;;;;;-147.14;100.00;58812.66;5037009;28;8784;-65
2022/08/23 09:43:47;;;;;;;;;0.80;0.80;;;;;-147.14;100.00;58812.66;5069999;28;8781;-65
2022/08/23 09:46:24;;;;;;;;;0.40;0.40;;;;;-147.14;100.00;58812.66;5037279;28;8799;-65
2022/08/23 09:48:49;;;;;;;;;1.40;0.20;;;;;-147.14;100.00;58812.66;5054677;28;8787;-66
2022/08/23 09:51:32;;;;;;;;;1.25;0.25;;;;;-147.14;100.00;58812.66;5054795;28;9199;-64
2022/08/23 09:54:05;;;;;;;;;0.80;0.80;;;;;-147.14;100.00;58812.66;5032609;28;8823;-65
2022/08/23 09:56:35;;;;;;;;;1.20;1.20;;;;;-147.14;100.00;58812.66;5034371;28;10104;-65
2022/08/23 09:59:01;;;;;;;;;1.00;1.00;;;;;-147.14;100.00;58812.66;5061658;28;8807;-65
2022/08/23 10:01:28;;;;;;;;;0.50;0.50;;;;;-147.14;100.00;58812.66;5037813;28;8841;-64
2022/08/23 10:04:06;;;;;;;;;0.00;0.00;;;;;-147.14;100.00;58812.66;5054804;28;8744;-65
2022/08/23 10:06:33;;;;;;;;;1.00;1.00;;;;;-147.14;100.00;58812.66;5053466;28;8826;-64
2022/08/23 10:09:03;;;;;;;;;1.80;1.80;;;;;-147.14;100.00;58812.66;5060753;28;8735;-64
2022/08/23 10:11:31;;;;;;;;;0.60;0.00;;;;;-147.14;100.00;58812.66;5052373;28;8914;-65
2022/08/23 10:13:57;;;;;;;;;0.20;0.20;;;;;-147.14;100.00;58812.66;5061865;28;8803;-65
2022/08/23 10:16:37;;;;;;;;;0.75;0.00;;;;;-147.14;100.00;58812.66;5065684;28;31057;-64
2022/08/23 10:19:09;;;;;;;;;1.20;1.20;;;;;-147.14;100.00;58812.66;5057250;28;8730;-64
2022/08/23 10:21:57;;;;;;;;;0.20;0.20;;;;;-147.14;100.00;58812.66;5064204;28;8812;-64
2022/08/23 10:24:35;;;;;;;;;0.80;0.80;;;;;-147.14;100.00;58812.66;5057285;28;8782;-65
2022/08/23 10:29:59;;;;;;;;;1.40;1.40;;;;;-147.14;100.00;58812.66;5054164;28;8803;-64
2022/08/23 10:32:37;;;;;;;;;0.20;0.20;;;;;-147.14;100.00;58812.66;5038351;28;8821;-65
2022/08/23 10:35:18;;;;;;;;;0.60;0.60;;;;;-147.14;100.00;58812.66;5060666;28;8768;-65
2022/08/23 10:37:47;;;;;;;;;0.20;0.20;;;;;-147.14;100.00;58812.66;5053443;28;8779;-64
2022/08/23 10:40:38;;;;;;;;;0.00;0.00;;;;;-147.14;100.00;58812.66;5065718;28;8726;-64
2022/08/23 10:43:29;;;;;;;;;0.60;0.00;;;;;-147.14;100.00;58812.66;5028457;28;8807;-64
2022/08/23 10:45:56;;;;;;;;;1.00;1.00;;;;;-147.14;100.00;58812.66;5054521;28;8802;-65
2022/08/23 10:48:28;;;;;;;;;0.80;0.80;;;;;-147.14;100.00;58812.66;5062889;28;8873;-65
2022/08/23 10:51:02;;;;;;;;;0.20;0.20;;;;;-147.14;100.00;58812.66;5042737;28;8780;-63
2022/08/23 10:53:45;;;;;;;;;0.00;0.00;;;;;-147.14;100.00;58812.66;5041929;28;8845;-64
2022/08/23 10:56:18;;;;;;;;;0.00;0.00;;;;;-147.14;100.00;58812.66;5058016;28;8791;-64
2022/08/23 10:58:53;;;;;;;;;0.00;0.00;;;;;-147.14;100.00;58812.66;5063209;28;8858;-64
2022/08/23 11:01:43;;;;;;;;;0.00;0.00;;;;;-147.14;100.00;58812.66;5040361;28;8785;-64
2022/08/23 11:04:49;;;;;;;;;0.20;0.20;;;;;-147.14;100.00;58812.66;5045747;28;9751;-64
2022/08/23 11:07:28;;;;;;;;;0.00;0.00;;;;;-147.14;100.00;58812.66;5045756;28;8926;-63
2022/08/23 11:10:24;;;;;;;;;0.00;0.00;;;;;-147.14;100.00;58812.66;5033567;28;8779;-64
2022/08/23 11:12:56;;;;;;;;;0.00;0.00;;;;;-147.14;100.00;58812.66;5069198;28;8912;-64
2022/08/23 11:15:36;;;;;;;;;0.00;0.00;;;;;-147.14;100.00;58812.66;5039895;28;8790;-63
2022/08/23 11:18:06;;;;;;;;;0.00;0.00;;;;;-147.14;100.00;58812.66;5033356;28;8791;-64
2022/08/23 11:20:50;;;;;;;;;0.00;0.00;;;;;-147.14;100.00;58812.66;5056321;28;8913;-64
2022/08/23 11:23:35;;;;;;;;;0.00;0.00;;;;;-147.14;100.00;58812.66;5064310;28;8841;-64
2022/08/23 11:26:02;;;;;;;;;0.00;0.00;;;;;-147.14;100.00;58812.66;5051702;28;9728;-65
2022/08/23 11:28:27;;;;;;;;;0.20;0.20;;;;;-147.14;100.00;58812.66;5056711;28;8798;-65
2022/08/23 11:30:56;;;;;;;;;0.00;0.00;;;;;-147.14;100.00;58812.66;5061084;28;9527;-65
2022/08/23 11:33:45;;;;;;;;;0.00;0.00;;;;;-147.14;100.00;58812.66;5059806;28;8964;-65
2022/08/23 11:36:11;;;;;;;;;0.00;0.00;;;;;-147.14;100.00;58812.66;5063983;28;8799;-64
2022/08/23 11:38:42;;;;;;;;;0.00;0.00;;;;;-147.14;100.00;58812.66;5060586;28;8837;-64
2022/08/23 11:41:12;;;;;;;;;0.00;0.00;;;;;-147.14;100.00;58812.66;5067647;28;8796;-64
2022/08/23 11:43:38;;;;;;;;;0.00;0.00;;;;;-147.14;100.00;58812.66;5062783;28;8851;-64
2022/08/23 11:46:22;;;;;;;;;0.00;0.00;;;;;-147.14;100.00;58812.66;5051330;28;8818;-64
2022/08/23 11:49:10;;;;;;;;;0.00;0.00;;;;;-147.14;100.00;58812.66;5058519;28;8811;-64
2022/08/23 11:51:53;;;;;;;;;0.40;0.00;;;;;-147.14;100.00;58812.66;5056410;28;8799;-64
2022/08/23 11:54:28;;;;;;;;;0.00;0.00;;;;;-147.14;100.00;58812.66;5063816;28;8843;-66
2022/08/23 11:57:08;;;;;;;;;0.00;0.00;;;;;-147.14;100.00;58812.66;5065860;28;8858;-66
2022/08/23 11:59:52;;;;;;;;;0.00;0.00;;;;;-147.14;100.00;58812.66;5061156;28;8810;-64
2022/08/23 12:02:36;;;;;;;;;0.00;0.00;;;;;-147.14;100.00;58812.66;5059297;28;8788;-64
2022/08/23 12:05:19;;;;;;;;;0.00;0.00;;;;;-147.14;100.00;58812.66;5050254;28;8807;-65
2022/08/23 12:07:49;;;;;;;;;0.00;0.00;;;;;-147.14;100.00;58812.66;5051636;28;8803;-64
2022/08/23 12:10:23;;;;;;;;;0.00;0.00;;;;;-147.14;100.00;58812.66;5055692;28;8787;-64
2022/08/23 12:13:21;;;;;;;;;0.00;0.00;;;;;-147.14;100.00;58812.66;5062453;28;8833;-64
2022/08/23 12:16:05;;;;;;;;;0.20;0.20;;;;;-147.14;100.00;58812.66;5053284;28;8787;-65
2022/08/23 12:18:33;;;;;;;;;0.00;0.00;;;;;-147.14;100.00;58812.66;5063130;28;8830;-65
2022/08/23 12:21:00;;;;;;;;;0.00;0.00;;;;;-147.14;100.00;58812.66;5045687;28;8764;-65
2022/08/23 12:23:26;;;;;;;;;0.00;0.00;;;;;-147.14;100.00;58812.66;5037462;28;8831;-64
2022/08/23 12:26:12;;;;;;;;;0.00;0.00;;;;;-147.14;100.00;58812.66;5061643;28;9035;-65
2022/08/23 12:28:53;;;;;;;;;0.00;0.00;;;;;-147.14;100.00;58812.66;5050929;28;8787;-64
2022/08/23 12:31:30;;;;;;;;;0.20;0.20;;;;;-147.14;100.00;58812.66;5021167;28;8827;-64
2022/08/23 12:34:05;;;;;;;;;0.00;0.00;;;;;-147.14;100.00;58812.66;5021487;28;8908;-64
2022/08/23 12:36:58;;;;;;;;;0.00;0.00;;;;;-147.14;100.00;58812.66;5010016;28;8886;-64
2022/08/23 12:39:56;;;;;;;;;0.00;0.00;;;;;-147.14;100.00;58812.66;5027864;28;8794;-64
2022/08/23 12:42:26;;;;;;;;;0.00;0.00;;;;;-147.14;100.00;58812.66;5012540;28;8816;-65
2022/08/23 12:45:11;;;;;;;;;0.00;0.00;;;;;-147.14;100.00;58812.66;5024371;28;8832;-65
2022/08/23 12:47:36;;;;;;;;;0.20;0.00;;;;;-147.14;100.00;58812.66;5027994;28;8800;-64
2022/08/23 12:50:09;;;;;;;;;0.00;0.00;;;;;-147.14;100.00;58812.66;5021377;28;8825;-65
2022/08/23 12:52:36;;;;;;;;;0.00;0.00;;;;;-147.14;100.00;58812.66;5016846;28;8805;-64
2022/08/23 12:55:11;;;;;;;;;0.00;0.00;;;;;-147.14;100.00;58812.66;5021353;28;8757;-64
2022/08/23 12:57:39;;;;;;;;;0.00;0.00;;;;;-147.14;100.00;58812.66;5015347;28;8800;-64
2022/08/23 13:00:12;;;;;;;;;0.00;0.00;;;;;-147.14;100.00;58812.66;5027548;28;8821;-64
2022/08/23 13:02:40;;;;;;;;;0.00;0.00;;;;;-147.14;100.00;58812.66;5019511;28;8752;-64
2022/08/23 13:05:12;;;;;;;;;0.00;0.00;;;;;-147.14;100.00;58812.66;5027474;28;8809;-63
2022/08/23 13:07:39;;;;;;;;;0.00;0.00;;;;;-147.14;100.00;58812.66;5015647;28;9669;-64
2022/08/23 13:10:07;;;;;;;;;0.20;0.20;;;;;-147.14;100.00;58812.66;5022114;28;9686;-65
2022/08/23 13:12:32;;;;;;;;;0.00;0.00;;;;;-147.14;100.00;58812.66;5019918;28;8801;-65
2022/08/23 13:15:00;;;;;;;;;0.00;0.00;;;;;-147.14;100.00;58812.66;5014785;28;8856;-65
2022/08/23 13:17:25;;;;;;;;;0.00;0.00;;;;;-147.14;100.00;58812.66;5024995;28;8826;-65
2022/08/23 13:19:59;;;;;;;;;0.50;0.00;;;;;-147.14;100.00;58812.66;5019122;28;8831;-65
2022/08/23 13:22:25;;;;;;;;;0.00;0.00;;;;;-147.14;100.00;58812.66;5020413;28;8816;-65
2022/08/23 13:25:03;;;;;;;;;0.00;0.00;;;;;-147.14;100.00;58812.66;5023650;28;9531;-65
2022/08/23 13:27:32;;;;;;;;;0.00;0.00;;;;;-147.14;100.00;58812.66;5021926;28;8815;-64
2022/08/23 13:30:18;;;;;;;;;0.00;0.00;;;;;-147.14;100.00;58812.66;5021929;28;8816;-65
2022/08/23 13:32:50;;;;;;;;;0.00;0.00;;;;;-147.14;100.00;58812.66;5058013;28;8789;-64
2022/08/23 13:35:21;;;;;;;;;0.00;0.00;;;;;-147.14;100.00;58812.66;5061780;28;8760;-65
2022/08/23 13:37:46;;;;;;;;;0.00;0.00;;;;;-147.14;100.00;58812.66;5060961;28;8795;-64
2022/08/23 13:40:22;;;;;;;;;0.00;0.00;;;;;-147.14;100.00;58812.66;5067071;28;29070;-64
2022/08/23 13:42:57;;;;;;;;;0.00;0.00;;;;;-147.14;100.00;58812.66;5038367;28;8791;-64
2022/08/23 13:45:30;;;;;;;;;0.00;0.00;;;;;-147.14;100.00;58812.66;5061666;28;8797;-65
2022/08/23 13:48:08;;;;;;;;;0.00;0.00;;;;;-147.14;100.00;58812.66;5037281;28;8784;-64
2022/08/23 13:50:35;;;;;;;;;0.00;0.00;;;;;-147.14;100.00;58812.66;5030974;28;8803;-65
2022/08/23 13:53:02;;;;;;;;;0.00;0.00;;;;;-147.14;100.00;58812.66;5052646;28;8830;-64
2022/08/23 13:55:28;;;;;;;;;0.00;0.00;;;;;-147.14;100.00;58812.66;5053920;28;8783;-65
2022/08/23 13:57:57;;;;;;;;;0.20;0.20;;;;;-147.14;100.00;58812.66;5063625;28;9617;-65
2022/08/23 14:00:24;;;;;;;;;0.00;0.00;;;;;-147.14;100.00;58812.66;5066935;28;8962;-65
2022/08/23 14:02:50;;;;;;;;;0.20;0.20;;;;;-147.14;100.00;58812.66;5056250;28;8787;-65
2022/08/23 14:05:18;;;;;;;;;0.20;0.20;;;;;-147.14;100.00;58812.66;5066047;28;8878;-65
2022/08/23 14:07:46;;;;;;;;;0.00;0.00;;;;;-147.14;100.00;58812.66;5063516;28;8793;-65
2022/08/23 14:10:12;;;;;;;;;0.00;0.00;;;;;-147.14;100.00;58812.66;5058398;28;8807;-65
2022/08/23 14:12:38;;;;;;;;;1.20;0.00;;;;;-147.14;100.00;58812.66;5059689;28;8811;-65
2022/08/23 14:15:05;;;;;;;;;0.00;0.00;;;;;-147.14;100.00;58812.66;5036969;28;8787;-65
2022/08/23 14:17:39;;;;;;;;;0.00;0.00;;;;;-147.14;100.00;58812.66;5053835;28;9696;-65
2022/08/23 14:20:07;;;;;;;;;0.00;0.00;;;;;-147.14;100.00;58812.66;5061797;28;8922;-64
2022/08/23 14:22:33;;;;;;;;;0.00;0.00;;;;;-147.14;100.00;58812.66;5039563;28;8805;-64
2022/08/23 14:24:58;;;;;;;;;0.00;0.00;;;;;-147.14;100.00;58812.66;5054433;28;8740;-65
2022/08/23 14:27:24;;;;;;;;;0.00;0.00;;;;;-147.14;100.00;58812.66;5065985;28;32442;-65
2022/08/23 14:29:49;;;;;;;;;0.00;0.00;;;;;-147.14;100.00;58812.66;5062893;28;33612;-64
2022/08/23 14:32:14;;;;;;;;;0.00;0.00;;;;;-147.14;100.00;58812.66;5052049;28;32097;-65
2022/08/23 14:34:40;;;;;;;;;0.00;0.00;;;;;-147.14;100.00;58812.66;5052622;28;35765;-64
2022/08/23 14:37:05;;;;;;;;;0.00;0.00;;;;;-147.14;100.00;58812.66;5066369;28;13689;-64
2022/08/23 14:39:30;;;;;;;;;0.00;0.00;;;;;-147.14;100.00;58812.66;5064112;28;26469;-65
2022/08/23 14:41:56;;;;;;;;;0.00;0.00;;;;;-147.14;100.00;58812.66;5035578;28;8845;-64
2022/08/23 14:44:21;;;;;;;;;0.00;0.00;;;;;-147.14;100.00;58812.66;5035873;28;8819;-64
2022/08/23 14:46:47;;;;;;;;;0.00;0.00;;;;;-147.14;100.00;58812.66;5058785;28;8836;-65
2022/08/23 14:49:12;;;;;;;;;0.00;0.00;;;;;-147.14;100.00;58812.66;5055426;28;8827;-65
2022/08/23 14:51:41;;;;;;;;;0.00;0.00;;;;;-147.14;100.00;58812.66;5059944;28;8807;-65
2022/08/23 14:54:11;;;;;;;;;0.00;0.00;;;;;-147.14;100.00;58812.66;5060209;28;8842;-65
2022/08/23 14:56:36;;;;;;;;;0.00;0.00;;;;;-147.14;100.00;58812.66;5035920;28;8905;-65
2022/08/23 14:59:01;;;;;;;;;0.00;0.00;;;;;-147.14;100.00;58812.66;5059648;28;37059;-65
2022/08/23 15:01:27;;;;;;;;;0.00;0.00;;;;;-147.14;100.00;58812.66;5062299;28;8791;-65
2022/08/23 15:03:52;;;;;;;;;0.00;0.00;;;;;-147.14;100.00;58812.66;5055975;28;8835;-65
2022/08/23 15:06:19;;;;;;;;;0.00;0.00;;;;;-147.14;100.00;58812.66;5058538;28;28285;-64
2022/08/23 15:08:45;;;;;;;;;0.00;0.00;;;;;-147.14;100.00;58812.66;5052359;28;10126;-64
2022/08/23 15:11:14;;;;;;;;;0.00;0.00;;;;;-147.14;100.00;58812.66;5053680;28;8849;-64
2022/08/23 15:13:40;;;;;;;;;0.00;0.00;;;;;-147.14;100.00;58812.66;5058581;28;8827;-65
2022/08/23 15:16:06;;;;;;;;;0.00;0.00;;;;;-147.14;100.00;58812.66;5034873;28;8803;-64
2022/08/23 15:18:33;;;;;;;;;0.00;0.00;;;;;-147.14;100.00;58812.66;5059867;28;8724;-64
2022/08/23 15:20:58;;;;;;;;;0.00;0.00;;;;;-147.14;100.00;58812.66;5058855;28;8801;-64
2022/08/23 15:23:24;;;;;;;;;0.00;0.00;;;;;-147.14;100.00;58812.66;5061693;28;8830;-64
2022/08/23 15:25:50;;;;;;;;;0.00;0.00;;;;;-147.14;100.00;58812.66;5052771;28;8795;-65
2022/08/23 15:28:18;;;;;;;;;0.00;0.00;;;;;-147.14;100.00;58812.66;5035092;28;8825;-65
2022/08/23 15:30:44;;;;;;;;;0.00;0.00;;;;;-147.14;100.00;58812.66;5057242;28;8785;-65
2022/08/23 15:33:09;;;;;;;;;0.00;0.00;;;;;-147.14;100.00;58812.66;5055044;28;9657;-65
2022/08/23 15:35:41;;;;;;;;;0.00;0.00;;;;;-147.14;100.00;58812.66;5053465;28;8776;-65
2022/08/23 15:38:07;;;;;;;;;0.00;0.00;;;;;-147.14;100.00;58812.66;5035427;28;8795;-65
2022/08/23 15:40:32;;;;;;;;;0.00;0.00;;;;;-147.14;100.00;58812.66;5060601;28;8796;-65
2022/08/23 15:42:58;;;;;;;;;0.00;0.00;;;;;-147.14;100.00;58812.66;5055432;28;8859;-65
2022/08/23 15:45:23;;;;;;;;;0.00;0.00;;;;;-147.14;100.00;58812.66;5058427;28;8885;-65
2022/08/23 15:47:51;;;;;;;;;0.00;0.00;;;;;-147.14;100.00;58812.66;5065854;28;8827;-65
2022/08/23 15:50:19;;;;;;;;;0.00;0.00;;;;;-147.14;100.00;58812.66;5057921;28;8795;-65
2022/08/23 15:52:45;;;;;;;;;0.00;0.00;;;;;-147.14;100.00;58812.66;5062934;28;8958;-65
2022/08/23 15:55:10;;;;;;;;;0.00;0.00;;;;;-147.14;100.00;58812.66;5062994;28;8811;-65
2022/08/23 15:57:47;;;;;;;;;0.00;0.00;;;;;-147.14;100.00;58812.66;5056222;28;8803;-65
2022/08/23 16:00:16;;;;;;;;;0.00;0.00;;;;;-147.14;100.00;58812.66;5060690;28;8793;-65
2022/08/23 16:02:41;;;;;;;;;0.00;0.00;;;;;-147.14;100.00;58812.66;5056234;28;8783;-65
2022/08/23 16:05:07;;;;;;;;;0.00;0.00;;;;;-147.14;100.00;58812.66;5061998;28;8913;-65
2022/08/23 16:07:33;;;;;;;;;0.00;0.00;;;;;-147.14;100.00;58812.66;5063213;28;8803;-65